Aérodrome :
LOGIN :

S'inscrire | Disclaimer

   EN    FR    IT 

 










Légende :    VFR   VFR Marginal   IFR   IFR Intensif   IFR Très Intensif
Visi : 
Plafond : 
>= 8 km
>= 3000ft
5 à 8 km
1000 à 3000 ft
1500m à 5 km
500 à 1000 ft
800 à 1500m
200 à 500 ft
< 800m
< 200 ft
Symboles :   Orages  Brouillard  Fortes neiges  Fortes précipitations  Vent > 20 kt
SIGMETs :   Divers  Orages  Givrage  Turbulence  Onde Orograph.  Cendres Volcan.






- Altitude de l'aérodrome : 768 ft
- Code IATA : MXP


LIMC - Milano Malpensa

DERNIER METAR :
  • 210150Z 11008KT 9999 -RA BKN045 BKN090 16/16 Q1017 RERA NOSIG

METARs EXPIRÉS :
  • 210120Z 12007KT 9999 BKN040 BKN065 16/15 Q1017 NOSIG
  • 210050Z 13009KT 9999 BKN040 16/15 Q1018 NOSIG
  • 210020Z 12012KT 9999 -RA NSC 16/15 Q1018 NOSIG
  • 202350Z 12016KT 9999 BKN040 16/15 Q1018 NOSIG

TAF TAF LIMC
Valide du 21 à 00h jusqu'au 22 à 06h UTC


202300Z 2100/2206 11008KT 8000 SCT015 BKN040
TEMPO 2100/2103 4000 RA
TEMPO 2103/2202 2500 TSRA BKN010CB OVC025
TEMPO 2202/2206 4000 RA



MET'MAP, la Météo Aéronautique d'un coup d'oeil ! - Copyright ORBIFLY Décembre 2007 - Disclaimer

ORBIFLY MET'MAP TEAM :

Programmation & Développement : Alexandra Zaïnal
Conception & Développement : Baudouin d'Aumeries
Co-Programmation & Développement : Marc-Olivier Méhu
Soutien technique & logistique : Manuel Goepfert

Contact : metmap@orbifly.com




SOURCES & CREDITS :

   NOAA